Time;durP1;ratioP1;P1;durP2;ratioP2;P2;SDS_P1;SDS_P2;PMS_P1;PMS_P2;Temp;Humidity;BMP_temperature;BMP_pressure;BME280_temperature;BME280_humidity;BME280_pressure;Samples;Min_cycle;Max_cycle;Signal;HPM_P1;HPM_P2
2024/04/20 00:02:25;33409.00;0.11;58.48;0.00;0.00;0.62;;;;;10.90;1.00;;;;;;2170120;66;973;-86
2024/04/20 00:04:53;66271.00;0.22;115.32;0.00;0.00;0.62;;;;;10.80;1.00;;;;;;2170194;66;1023;-86
2024/04/20 00:07:22;46083.00;0.15;80.41;0.00;0.00;0.62;;;;;10.60;1.00;;;;;;2170075;66;1496;-86
2024/04/20 00:09:51;0.00;0.00;0.62;0.00;0.00;0.62;;;;;10.70;1.00;;;;;;2170274;66;903;-86
2024/04/20 00:12:22;67761.00;0.23;117.89;0.00;0.00;0.62;;;;;10.60;1.00;;;;;;2170253;66;1006;-88
2024/04/20 00:14:50;54392.00;0.18;94.78;0.00;0.00;0.62;;;;;10.80;1.00;;;;;;2170143;66;1701;-86
2024/04/20 00:17:19;77501.00;0.26;134.72;0.00;0.00;0.62;;;;;10.70;1.00;;;;;;2170090;66;1896;-86
2024/04/20 00:19:48;42591.00;0.14;74.37;0.00;0.00;0.62;;;;;10.70;1.00;;;;;;2170207;66;866;-87
2024/04/20 00:22:16;0.00;0.00;0.62;0.00;0.00;0.62;;;;;10.70;1.00;;;;;;2170219;66;945;-87
2024/04/20 00:24:50;39399.00;0.13;68.85;0.00;0.00;0.62;;;;;10.30;1.00;;;;;;2170157;66;1012;-86
2024/04/20 00:27:22;34737.00;0.12;60.78;0.00;0.00;0.62;;;;;10.40;1.00;;;;;;2170161;66;1358;-88
2024/04/20 00:29:50;90110.00;0.30;156.50;0.00;0.00;0.62;;;;;10.40;1.00;;;;;;2170123;66;1535;-87
2024/04/20 00:32:19;148033.00;0.49;256.42;0.00;0.00;0.62;;;;;10.00;1.00;;;;;;2171355;60;3559;-86
2024/04/20 00:34:47;92285.00;0.31;160.25;16015.00;0.05;28.37;;;;;9.50;1.00;;;;;;2170153;66;965;-87
2024/04/20 00:37:16;76419.00;0.25;132.85;0.00;0.00;0.62;;;;;8.90;1.00;;;;;;2170112;66;1904;-86
2024/04/20 00:39:44;65317.00;0.22;113.67;0.00;0.00;0.62;;;;;8.70;1.00;;;;;;2170015;66;1586;-89
2024/04/20 00:42:13;0.00;0.00;0.62;0.00;0.00;0.62;;;;;8.90;1.00;;;;;;2170130;66;906;-88
2024/04/20 00:44:44;47176.00;0.16;82.30;0.00;0.00;0.62;;;;;9.20;1.00;;;;;;2170164;66;1061;-88
2024/04/20 00:47:13;40592.00;0.14;70.91;0.00;0.00;0.62;;;;;9.20;1.00;;;;;;2170107;66;1685;-87
2024/04/20 00:49:42;38172.00;0.13;66.73;0.00;0.00;0.62;;;;;9.10;1.00;;;;;;2170010;66;1606;-86
2024/04/20 00:52:10;0.00;0.00;0.62;0.00;0.00;0.62;;;;;9.00;1.00;;;;;;2170045;66;1085;-86
2024/04/20 00:54:40;29736.00;0.10;52.13;0.00;0.00;0.62;;;;;8.90;1.00;;;;;;2170117;66;1025;-87
2024/04/20 00:57:10;121129.00;0.40;210.03;0.00;0.00;0.62;;;;;9.00;1.00;;;;;;2170087;66;1868;-86
2024/04/20 00:59:40;29943.00;0.10;52.48;0.00;0.00;0.62;;;;;9.50;1.00;;;;;;2169955;66;1227;-88
2024/04/20 01:02:12;147076.00;0.49;254.77;13307.00;0.04;23.68;;;;;9.90;1.00;;;;;;2170080;66;1431;-87
2024/04/20 01:04:41;39556.00;0.13;69.12;0.00;0.00;0.62;;;;;10.30;1.00;;;;;;2170079;66;1576;-86
2024/04/20 01:07:10;51923.00;0.17;90.51;0.00;0.00;0.62;;;;;10.00;1.00;;;;;;2170180;66;1013;-86
2024/04/20 01:09:38;18660.00;0.06;32.95;0.00;0.00;0.62;;;;;10.10;1.00;;;;;;2170056;66;1403;-85
2024/04/20 01:12:08;32496.00;0.11;56.90;0.00;0.00;0.62;;;;;10.20;1.00;;;;;;2170124;66;999;-86
2024/04/20 01:17:11;43467.00;0.14;75.89;0.00;0.00;0.62;;;;;10.20;1.00;;;;;;2169571;66;1854;-86
2024/04/20 01:19:40;213711.00;0.71;369.52;0.00;0.00;0.62;;;;;10.40;1.00;;;;;;2164175;66;1254;-86
2024/04/20 01:22:09;133737.00;0.45;231.77;0.00;0.00;0.62;;;;;10.40;1.00;;;;;;2164423;66;1078;-87
2024/04/20 01:24:38;75394.00;0.25;131.08;0.00;0.00;0.62;;;;;10.70;1.00;;;;;;2164323;66;967;-87
2024/04/20 01:27:09;81793.00;0.27;142.13;0.00;0.00;0.62;;;;;10.90;1.00;;;;;;2164309;66;1576;-88
2024/04/20 01:29:38;271133.00;0.90;468.29;0.00;0.00;0.62;;;;;10.70;1.00;;;;;;2164444;66;1333;-87
2024/04/20 01:32:07;13524.00;0.05;24.05;0.00;0.00;0.62;;;;;11.10;1.00;;;;;;2164399;66;876;-86
2024/04/20 01:34:36;47073.00;0.16;82.12;0.00;0.00;0.62;;;;;10.60;1.00;;;;;;2164353;66;1034;-85
2024/04/20 01:37:05;86850.00;0.29;150.87;0.00;0.00;0.62;;;;;10.40;1.00;;;;;;2164344;66;1888;-87
2024/04/20 01:39:33;87356.00;0.29;151.74;0.00;0.00;0.62;;;;;10.70;1.00;;;;;;2164366;66;1159;-87
2024/04/20 01:42:02;99954.00;0.33;173.49;0.00;0.00;0.62;;;;;11.10;1.00;;;;;;2164386;66;1091;-87
2024/04/20 01:44:33;88165.00;0.29;153.14;0.00;0.00;0.62;;;;;11.30;1.00;;;;;;2164425;66;1041;-86
2024/04/20 01:47:01;54143.00;0.18;94.35;0.00;0.00;0.62;;;;;11.40;1.00;;;;;;2164452;66;1227;-88
2024/04/20 01:49:30;47121.00;0.16;82.21;0.00;0.00;0.62;;;;;11.60;1.00;;;;;;2164847;66;1205;-87
2024/04/20 01:51:58;142842.00;0.48;247.47;0.00;0.00;0.62;;;;;11.80;1.00;;;;;;2164289;66;1617;-88
2024/04/20 01:54:27;117532.00;0.39;203.83;0.00;0.00;0.62;;;;;12.00;1.00;;;;;;2164422;66;1211;-86
2024/04/20 01:56:55;198483.00;0.66;343.31;0.00;0.00;0.62;;;;;12.00;1.00;;;;;;2164422;66;1903;-88
2024/04/20 01:59:24;141009.00;0.47;244.31;0.00;0.00;0.62;;;;;11.70;1.00;;;;;;2164636;66;1215;-87
2024/04/20 02:01:57;49001.00;0.16;85.46;0.00;0.00;0.62;;;;;11.40;1.00;;;;;;2164269;66;1556;-87
2024/04/20 02:04:27;25009.00;0.08;43.94;0.00;0.00;0.62;;;;;11.10;1.00;;;;;;2164333;66;1749;-86
2024/04/20 02:06:56;85991.00;0.29;149.38;0.00;0.00;0.62;;;;;11.10;1.00;;;;;;2164412;66;1272;-87
2024/04/20 02:09:24;80697.00;0.27;140.24;0.00;0.00;0.62;;;;;11.10;1.00;;;;;;2164411;66;1255;-88
2024/04/20 02:11:53;37726.00;0.13;65.95;0.00;0.00;0.62;;;;;11.50;1.00;;;;;;2164435;66;945;-86
2024/04/20 02:14:21;66089.00;0.22;115.00;0.00;0.00;0.62;;;;;11.30;1.00;;;;;;2164171;66;1570;-87
2024/04/20 02:16:50;112655.00;0.38;195.41;0.00;0.00;0.62;;;;;11.40;1.00;;;;;;2164265;66;1949;-87
2024/04/20 02:19:21;82724.00;0.28;143.74;0.00;0.00;0.62;;;;;11.00;1.00;;;;;;2164290;66;1490;-87
2024/04/20 02:21:49;142416.00;0.47;246.74;0.00;0.00;0.62;;;;;10.90;1.00;;;;;;2164418;66;958;-87
2024/04/20 02:24:18;14196.00;0.05;25.22;0.00;0.00;0.62;;;;;11.00;1.00;;;;;;2164389;66;876;-87
2024/04/20 02:26:46;20126.00;0.07;35.49;0.00;0.00;0.62;;;;;11.10;1.00;;;;;;2164303;66;1689;-88
2024/04/20 02:29:15;125958.00;0.42;218.36;20126.00;0.07;35.49;;;;;10.70;1.00;;;;;;2164287;66;1282;-88
2024/04/20 02:31:43;15004.00;0.05;26.62;0.00;0.00;0.62;;;;;10.40;1.00;;;;;;2164221;66;1681;-87
2024/04/20 02:34:12;103929.00;0.35;180.35;0.00;0.00;0.62;;;;;10.60;1.00;;;;;;2164345;66;1157;-87
2024/04/20 02:36:43;80137.00;0.27;139.27;0.00;0.00;0.62;;;;;10.90;1.00;;;;;;2164135;66;1542;-86
2024/04/20 02:39:12;119421.00;0.40;207.08;0.00;0.00;0.62;;;;;11.10;1.00;;;;;;2164605;66;1887;-87
2024/04/20 02:41:41;123408.00;0.41;213.96;0.00;0.00;0.62;;;;;10.80;1.00;;;;;;2164228;66;1409;-87
2024/04/20 02:44:09;150197.00;0.50;260.15;0.00;0.00;0.62;;;;;10.40;1.00;;;;;;2164246;66;1508;-85
2024/04/20 02:46:38;29172.00;0.10;51.15;0.00;0.00;0.62;;;;;10.20;1.00;;;;;;2164251;66;1019;-87
2024/04/20 02:49:06;371424.00;1.24;640.68;0.00;0.00;0.62;;;;;10.50;1.00;;;;;;2164118;66;1532;-86
2024/04/20 02:51:35;80184.00;0.27;139.36;0.00;0.00;0.62;;;;;10.60;1.00;;;;;;2164208;66;2383;-85
2024/04/20 02:54:06;92427.00;0.31;160.50;0.00;0.00;0.62;;;;;10.30;1.00;;;;;;2164234;66;926;-86
2024/04/20 02:56:35;29393.00;0.10;51.53;0.00;0.00;0.62;;;;;10.30;1.00;;;;;;2164019;66;1532;-85
2024/04/20 02:59:03;58756.00;0.20;102.33;0.00;0.00;0.62;;;;;10.50;1.00;;;;;;2164152;66;1865;-87
2024/04/20 03:01:32;82117.00;0.27;142.69;0.00;0.00;0.62;;;;;10.80;1.00;;;;;;2164146;66;1524;-86
2024/04/20 03:04:01;79452.00;0.26;138.09;1362.00;0.00;2.98;;;;;10.70;1.00;;;;;;2164142;66;943;-87
2024/04/20 03:06:29;81762.00;0.27;142.08;0.00;0.00;0.62;;;;;10.40;1.00;;;;;;2164181;66;973;-86
2024/04/20 03:08:58;0.00;0.00;0.62;0.00;0.00;0.62;;;;;10.50;1.00;;;;;;2164114;66;1553;-87
2024/04/20 03:11:29;81626.00;0.27;141.85;0.00;0.00;0.62;;;;;10.90;1.00;;;;;;2164200;66;871;-86
2024/04/20 03:13:57;192292.00;0.64;332.65;43960.00;0.15;76.74;;;;;11.40;1.00;;;;;;2164125;66;1652;-87
2024/04/20 03:16:26;171618.00;0.57;297.05;18575.00;0.06;32.80;;;;;11.30;1.00;;;;;;2163992;66;990;-87
2024/04/20 03:18:54;0.00;0.00;0.62;0.00;0.00;0.62;;;;;11.30;1.00;;;;;;2164014;66;2423;-86
2024/04/20 03:21:23;27702.00;0.09;48.61;0.00;0.00;0.62;;;;;11.50;1.00;;;;;;2164153;66;870;-86
2024/04/20 03:23:52;32541.00;0.11;56.98;0.00;0.00;0.62;;;;;11.40;1.00;;;;;;2164065;66;1530;-87
2024/04/20 03:26:20;81099.00;0.27;140.94;0.00;0.00;0.62;;;;;11.50;1.00;;;;;;2164056;66;1431;-86
2024/04/20 03:28:51;83428.00;0.28;144.96;0.00;0.00;0.62;;;;;11.60;1.00;;;;;;2164046;66;1570;-87
2024/04/20 03:31:20;48900.00;0.16;85.28;0.00;0.00;0.62;;;;;11.30;1.00;;;;;;2163982;66;1089;-87
2024/04/20 03:33:48;92241.00;0.31;160.18;0.00;0.00;0.62;;;;;11.40;1.00;;;;;;2164106;66;996;-88
2024/04/20 03:36:17;188733.00;0.63;326.53;0.00;0.00;0.62;;;;;11.10;1.00;;;;;;2164089;66;925;-86
2024/04/20 03:38:49;32301.00;0.11;56.57;0.00;0.00;0.62;;;;;10.90;1.00;;;;;;2163929;66;1910;-87
2024/04/20 03:41:17;18044.00;0.06;31.88;0.00;0.00;0.62;;;;;10.80;1.00;;;;;;2163940;66;845;-87
2024/04/20 03:43:46;83539.00;0.28;145.15;0.00;0.00;0.62;;;;;10.50;1.00;;;;;;2164389;66;1560;-87
2024/04/20 03:46:17;169971.00;0.57;294.22;0.00;0.00;0.62;;;;;10.20;1.00;;;;;;2164431;66;919;-85
2024/04/20 03:48:48;66724.00;0.22;116.10;0.00;0.00;0.62;;;;;10.50;1.00;;;;;;2164579;66;1312;-86
2024/04/20 03:51:16;22655.00;0.08;39.87;0.00;0.00;0.62;;;;;10.80;1.00;;;;;;2164491;66;1690;-85
2024/04/20 03:53:45;0.00;0.00;0.62;0.00;0.00;0.62;;;;;11.20;1.00;;;;;;2164608;66;951;-87
2024/04/20 03:56:13;15012.00;0.05;26.63;0.00;0.00;0.62;;;;;11.10;1.00;;;;;;2164492;66;1539;-88
2024/04/20 03:58:42;22552.00;0.08;39.69;0.00;0.00;0.62;;;;;10.70;1.00;;;;;;2164834;66;1903;-87
2024/04/20 04:01:10;79195.00;0.26;137.65;0.00;0.00;0.62;;;;;10.50;1.00;;;;;;2164443;66;1608;-86
2024/04/20 04:03:41;138641.00;0.46;240.23;0.00;0.00;0.62;;;;;10.20;1.00;;;;;;2164646;66;955;-88
2024/04/20 04:06:10;29434.00;0.10;51.60;0.00;0.00;0.62;;;;;10.80;1.00;;;;;;2164650;66;1032;-87
2024/04/20 04:08:38;114431.00;0.38;198.48;0.00;0.00;0.62;;;;;11.10;1.00;;;;;;2164505;66;1495;-86
2024/04/20 04:11:07;259635.00;0.87;448.52;37153.00;0.12;64.96;;;;;11.20;1.00;;;;;;2164582;66;1612;-86
2024/04/20 04:13:36;151032.00;0.50;261.59;23703.00;0.08;41.68;;;;;11.10;1.00;;;;;;2164434;66;944;-87
2024/04/20 04:16:05;68302.00;0.23;118.83;0.00;0.00;0.62;;;;;10.90;1.00;;;;;;2164558;66;1107;-87
2024/04/20 04:18:33;100148.00;0.33;173.83;0.00;0.00;0.62;;;;;10.40;1.00;;;;;;2164561;66;1919;-87
2024/04/20 04:21:05;106174.00;0.35;184.23;0.00;0.00;0.62;;;;;10.60;1.00;;;;;;2164646;66;926;-87
2024/04/20 04:23:33;109755.00;0.37;190.41;0.00;0.00;0.62;;;;;10.20;1.00;;;;;;2164669;66;1024;-86
2024/04/20 04:26:03;34354.00;0.11;60.12;0.00;0.00;0.62;;;;;10.10;1.00;;;;;;2164616;66;938;-86
2024/04/20 04:28:34;57425.00;0.19;100.03;0.00;0.00;0.62;;;;;10.40;1.00;;;;;;2164530;66;1588;-87
2024/04/20 04:31:02;124056.00;0.41;215.08;0.00;0.00;0.62;;;;;10.70;1.00;;;;;;2164655;66;962;-86
2024/04/20 04:33:31;0.00;0.00;0.62;0.00;0.00;0.62;;;;;10.90;1.00;;;;;;2164599;66;1027;-86
2024/04/20 04:36:00;108581.00;0.36;188.38;0.00;0.00;0.62;;;;;10.90;1.00;;;;;;2164625;66;922;-86
2024/04/20 04:38:31;99736.00;0.33;173.12;0.00;0.00;0.62;;;;;10.70;1.00;;;;;;2164445;66;1903;-87
2024/04/20 04:41:00;22533.00;0.08;39.66;0.00;0.00;0.62;;;;;10.60;1.00;;;;;;2164525;66;1100;-87
2024/04/20 04:43:29;283770.00;0.95;490.02;0.00;0.00;0.62;;;;;10.60;1.00;;;;;;2164494;66;1573;-86
2024/04/20 04:45:57;10752.00;0.04;19.25;0.00;0.00;0.62;;;;;11.10;1.00;;;;;;2164520;66;1604;-87
2024/04/20 04:48:28;99466.00;0.33;172.65;0.00;0.00;0.62;;;;;11.40;1.00;;;;;;2164763;66;1256;-85
2024/04/20 04:50:54;0.00;0.00;0.62;0.00;0.00;0.62;;;;;10.90;1.00;;;;;;2164540;66;1534;-86
2024/04/20 04:53:22;123208.00;0.41;213.62;0.00;0.00;0.62;;;;;11.20;1.00;;;;;;2164584;66;995;-87
2024/04/20 04:55:53;258055.00;0.86;445.80;14726.00;0.05;26.14;;;;;11.50;1.00;;;;;;2164523;66;1531;-87
2024/04/20 04:58:22;41391.00;0.14;72.29;0.00;0.00;0.62;;;;;11.50;1.00;;;;;;2164377;66;1971;-87
2024/04/20 05:00:50;9124.00;0.03;16.43;0.00;0.00;0.62;;;;;11.60;1.00;;;;;;2164460;66;1482;-88
2024/04/20 05:03:19;199180.00;0.66;344.51;64375.00;0.21;112.04;;;;;11.40;1.00;;;;;;2164453;66;1535;-86
2024/04/20 05:05:50;69082.00;0.23;120.17;0.00;0.00;0.62;;;;;11.60;1.00;;;;;;2164281;66;1632;-88
2024/04/20 05:08:18;79417.00;0.26;138.03;0.00;0.00;0.62;;;;;11.60;1.00;;;;;;2164389;66;1481;-88
2024/04/20 05:10:47;130856.00;0.44;226.81;0.00;0.00;0.62;;;;;11.60;1.00;;;;;;2164421;66;1563;-86
2024/04/20 05:13:18;18003.00;0.06;31.81;0.00;0.00;0.62;;;;;10.70;1.00;;;;;;2164483;66;1029;-87
2024/04/20 05:15:48;37213.00;0.12;65.07;0.00;0.00;0.62;;;;;10.80;1.00;;;;;;2164387;66;1127;-87
2024/04/20 05:18:17;63946.00;0.21;111.30;0.00;0.00;0.62;;;;;10.90;1.00;;;;;;2164315;66;1893;-87
2024/04/20 05:20:46;192959.00;0.64;333.80;12368.00;0.04;22.05;;;;;10.90;1.00;;;;;;2164409;66;1605;-87
2024/04/20 05:23:15;0.00;0.00;0.62;0.00;0.00;0.62;;;;;11.20;1.00;;;;;;2164471;66;2024;-86
2024/04/20 05:25:45;41776.00;0.14;72.96;0.00;0.00;0.62;;;;;11.50;1.00;;;;;;2164429;66;1007;-88
2024/04/20 05:28:14;0.00;0.00;0.62;0.00;0.00;0.62;;;;;11.10;1.00;;;;;;2164349;66;1649;-86
2024/04/20 05:30:45;31726.00;0.11;55.57;0.00;0.00;0.62;;;;;10.60;1.00;;;;;;2164378;66;1526;-86
2024/04/20 05:33:14;40147.00;0.13;70.14;0.00;0.00;0.62;;;;;10.70;1.00;;;;;;2164331;66;1694;-87
2024/04/20 05:35:43;138329.00;0.46;239.69;0.00;0.00;0.62;;;;;10.70;1.00;;;;;;2164377;66;1641;-88
2024/04/20 05:38:12;222044.00;0.74;383.86;13379.00;0.04;23.80;;;;;10.80;1.00;;;;;;2164342;66;1862;-86
2024/04/20 05:40:40;63236.00;0.21;110.07;0.00;0.00;0.62;;;;;10.80;1.00;;;;;;2164469;66;840;-87
2024/04/20 05:43:09;50406.00;0.17;87.89;0.00;0.00;0.62;;;;;11.00;1.00;;;;;;2164479;66;926;-86
2024/04/20 05:45:38;41955.00;0.14;73.27;0.00;0.00;0.62;;;;;10.30;1.00;;;;;;2164452;66;942;-87
2024/04/20 05:48:10;65008.00;0.22;113.13;0.00;0.00;0.62;;;;;10.50;1.00;;;;;;2164375;66;1273;-85
2024/04/20 05:50:38;41444.00;0.14;72.39;0.00;0.00;0.62;;;;;10.10;1.00;;;;;;2164376;66;1020;-87
2024/04/20 05:53:07;118954.00;0.40;206.28;0.00;0.00;0.62;;;;;10.00;1.00;;;;;;2164373;66;1418;-86
2024/04/20 05:55:36;196286.00;0.65;339.53;0.00;0.00;0.62;;;;;10.50;1.00;;;;;;2164387;66;1086;-85
2024/04/20 05:58:04;2132.00;0.01;4.32;0.00;0.00;0.62;;;;;11.10;1.00;;;;;;2164349;66;1899;-86
2024/04/20 06:00:33;259590.00;0.87;448.44;17205.00;0.06;30.43;;;;;11.10;1.00;;;;;;2164375;66;1445;-87
2024/04/20 06:03:02;139032.00;0.46;240.90;0.00;0.00;0.62;;;;;11.40;1.00;;;;;;2164452;66;937;-87
2024/04/20 06:05:33;20325.00;0.07;35.83;0.00;0.00;0.62;;;;;11.50;1.00;;;;;;2164214;66;1044;-86
2024/04/20 06:08:02;3981.00;0.01;7.52;0.00;0.00;0.62;;;;;11.50;1.00;;;;;;2164278;66;1555;-88
2024/04/20 06:10:31;161388.00;0.54;279.43;0.00;0.00;0.62;;;;;11.80;1.00;;;;;;2164360;66;1688;-87
2024/04/20 06:12:59;55628.00;0.19;96.92;0.00;0.00;0.62;;;;;12.10;1.00;;;;;;2164324;66;1684;-86
2024/04/20 06:15:28;0.00;0.00;0.62;0.00;0.00;0.62;;;;;12.30;1.00;;;;;;2164392;66;1176;-87
2024/04/20 06:17:57;68563.00;0.23;119.28;0.00;0.00;0.62;;;;;12.50;1.00;;;;;;2164396;66;1892;-88
2024/04/20 06:20:25;0.00;0.00;0.62;0.00;0.00;0.62;;;;;12.40;1.00;;;;;;2164369;66;1031;-87
2024/04/20 06:22:56;105109.00;0.35;182.39;0.00;0.00;0.62;;;;;12.40;1.00;;;;;;2164323;66;1680;-87
2024/04/20 06:25:25;21477.00;0.07;37.83;0.00;0.00;0.62;;;;;12.40;1.00;;;;;;2164376;66;1744;-87
2024/04/20 06:27:53;0.00;0.00;0.62;0.00;0.00;0.62;;;;;12.20;1.00;;;;;;2164331;66;1276;-85
2024/04/20 06:30:22;0.00;0.00;0.62;0.00;0.00;0.62;;;;;12.30;1.00;;;;;;2164306;66;1696;-87
2024/04/20 06:35:18;62684.00;0.21;109.12;0.00;0.00;0.62;;;;;11.70;1.00;;;;;;2163796;66;1364;-88
2024/04/20 06:37:47;10343.00;0.03;18.54;0.00;0.00;0.62;;;;;12.20;1.00;;;;;;2163045;66;1684;-86
2024/04/20 06:40:18;63758.00;0.21;110.97;0.00;0.00;0.62;;;;;12.40;1.00;;;;;;2158608;66;1896;-87
2024/04/20 06:42:49;48528.00;0.16;84.64;0.00;0.00;0.62;;;;;12.20;1.00;;;;;;2158672;66;1285;-86
2024/04/20 06:45:18;0.00;0.00;0.62;0.00;0.00;0.62;;;;;12.20;1.00;;;;;;2158642;66;1679;-86
2024/04/20 06:47:47;143980.00;0.48;249.43;0.00;0.00;0.62;;;;;12.10;1.00;;;;;;2158679;66;1238;-87
2024/04/20 06:50:17;178572.00;0.60;309.03;0.00;0.00;0.62;;;;;12.20;1.00;;;;;;2158676;66;974;-87
2024/04/20 06:52:47;38623.00;0.13;67.51;0.00;0.00;0.62;;;;;11.70;1.00;;;;;;2158606;66;1597;-86
2024/04/20 06:55:19;126796.00;0.42;219.80;0.00;0.00;0.62;;;;;11.40;1.00;;;;;;2158568;66;1453;-86
2024/04/20 06:57:47;173225.00;0.58;299.82;0.00;0.00;0.62;;;;;11.60;1.00;;;;;;2158554;66;1510;-85
2024/04/20 07:00:17;109712.00;0.37;190.33;0.00;0.00;0.62;;;;;12.00;1.00;;;;;;2158417;66;1898;-86
2024/04/20 07:02:45;181072.00;0.60;313.34;0.00;0.00;0.62;;;;;11.50;1.00;;;;;;2158432;66;1509;-88
2024/04/20 07:05:15;142323.00;0.47;246.58;32441.00;0.11;56.81;;;;;10.50;1.00;;;;;;2158459;66;1076;-87
2024/04/20 07:07:43;110506.00;0.37;191.70;0.00;0.00;0.62;;;;;11.00;1.00;;;;;;2160174;61;3655;-88
2024/04/20 07:10:12;203827.00;0.68;352.51;0.00;0.00;0.62;;;;;11.90;1.00;;;;;;2182206;61;3483;-87
2024/04/20 07:12:43;34037.00;0.11;59.57;0.00;0.00;0.62;;;;;12.70;1.00;;;;;;2169345;66;1066;-88
2024/04/20 07:15:12;21500.00;0.07;37.87;0.00;0.00;0.62;;;;;12.50;1.00;;;;;;2169410;66;1564;-89
2024/04/20 07:17:40;146727.00;0.49;254.17;0.00;0.00;0.62;;;;;12.50;1.00;;;;;;2170717;61;3588;-86
2024/04/20 07:20:10;81502.00;0.27;141.63;0.00;0.00;0.62;;;;;12.50;1.00;;;;;;2170156;66;1865;-87
2024/04/20 07:22:38;52960.00;0.18;92.30;0.00;0.00;0.62;;;;;12.40;1.00;;;;;;2170037;66;1476;-89
2024/04/20 07:25:07;28854.00;0.10;50.60;0.00;0.00;0.62;;;;;12.80;1.00;;;;;;2170134;66;1290;-88
2024/04/20 07:27:36;0.00;0.00;0.62;0.00;0.00;0.62;;;;;12.90;1.00;;;;;;2170169;66;1202;-90
2024/04/20 07:30:08;27481.00;0.09;48.22;0.00;0.00;0.62;;;;;13.10;1.00;;;;;;2170133;66;1160;-88
2024/04/20 07:32:38;20575.00;0.07;36.27;0.00;0.00;0.62;;;;;13.00;1.00;;;;;;2170239;66;907;-89
2024/04/20 07:35:07;143726.00;0.48;248.99;0.00;0.00;0.62;;;;;13.70;1.00;;;;;;2170106;66;1081;-88
2024/04/20 07:37:35;38457.00;0.13;67.22;0.00;0.00;0.62;;;;;14.20;1.00;;;;;;2170040;66;1231;-87
2024/04/20 07:40:04;0.00;0.00;0.62;0.00;0.00;0.62;;;;;14.20;1.00;;;;;;2170228;66;1900;-87
2024/04/20 07:42:33;45623.00;0.15;79.62;0.00;0.00;0.62;;;;;13.20;1.00;;;;;;2170139;66;902;-88
2024/04/20 07:45:01;863.00;0.00;2.12;0.00;0.00;0.62;;;;;12.90;1.00;;;;;;2170161;66;937;-87
2024/04/20 07:47:32;10196.00;0.03;18.29;0.00;0.00;0.62;;;;;12.60;1.00;;;;;;2170475;66;1653;-86
2024/04/20 07:50:01;74174.00;0.25;128.97;0.00;0.00;0.62;;;;;12.50;1.00;;;;;;2170200;66;871;-88
2024/04/20 07:52:29;9977.00;0.03;17.91;0.00;0.00;0.62;;;;;12.50;1.00;;;;;;2170556;66;945;-86
2024/04/20 07:54:59;0.00;0.00;0.62;0.00;0.00;0.62;;;;;12.70;1.00;;;;;;2170751;66;1533;-87
2024/04/20 07:57:27;84389.00;0.28;146.62;0.00;0.00;0.62;;;;;12.80;1.00;;;;;;2170667;66;1570;-87
2024/04/20 07:59:56;0.00;0.00;0.62;0.00;0.00;0.62;;;;;12.20;1.00;;;;;;2170762;66;1899;-87
2024/04/20 08:02:24;141434.00;0.47;245.04;55663.00;0.19;96.98;;;;;12.30;1.00;;;;;;2170716;66;1650;-87
2024/04/20 08:04:56;97272.00;0.32;168.86;0.00;0.00;0.62;;;;;12.40;1.00;;;;;;2170592;66;1086;-88
2024/04/20 08:07:24;129579.00;0.43;224.60;0.00;0.00;0.62;;;;;12.20;1.00;;;;;;2170332;66;1315;-86
2024/04/20 08:09:53;94968.00;0.32;164.89;0.00;0.00;0.62;;;;;11.50;1.00;;;;;;2170257;66;1509;-87
2024/04/20 08:12:21;85566.00;0.29;148.65;0.00;0.00;0.62;;;;;11.40;1.00;;;;;;2170271;66;1487;-86
2024/04/20 08:14:50;54907.00;0.18;95.67;0.00;0.00;0.62;;;;;11.20;1.00;;;;;;2170287;66;1573;-86
2024/04/20 08:17:18;0.00;0.00;0.62;0.00;0.00;0.62;;;;;11.10;1.00;;;;;;2170150;66;1272;-86
2024/04/20 08:19:47;48282.00;0.16;84.21;0.00;0.00;0.62;;;;;10.30;1.00;;;;;;2170227;66;1900;-86
2024/04/20 08:22:19;14334.00;0.05;25.46;0.00;0.00;0.62;;;;;10.90;1.00;;;;;;2170269;66;1860;-86
2024/04/20 08:24:47;120309.00;0.40;208.62;0.00;0.00;0.62;;;;;11.70;1.00;;;;;;2170347;66;1621;-88
2024/04/20 08:27:16;55871.00;0.19;97.34;0.00;0.00;0.62;;;;;12.30;1.00;;;;;;2170263;66;1551;-86
2024/04/20 08:29:44;15562.00;0.05;27.58;0.00;0.00;0.62;;;;;12.10;1.00;;;;;;2169960;66;956;-85
2024/04/20 08:32:13;72835.00;0.24;126.66;0.00;0.00;0.62;;;;;11.90;1.00;;;;;;2169951;66;1027;-86
2024/04/20 08:34:41;40390.00;0.13;70.56;0.00;0.00;0.62;;;;;11.90;1.00;;;;;;2170348;66;1093;-86
2024/04/20 08:37:10;7805.00;0.03;14.15;0.00;0.00;0.62;;;;;11.80;1.00;;;;;;2170370;66;2294;-88
2024/04/20 08:39:41;166171.00;0.55;287.67;0.00;0.00;0.62;;;;;12.20;1.00;;;;;;2170204;66;1891;-87
2024/04/20 08:42:24;41088.00;0.14;71.77;0.00;0.00;0.62;;;;;12.20;1.00;;;;;;2170193;66;1636;-85
2024/04/20 08:44:53;235318.00;0.78;406.70;51149.00;0.17;89.17;;;;;11.90;1.00;;;;;;2170373;66;938;-86
2024/04/20 08:49:52;113398.00;0.38;196.69;0.00;0.00;0.62;;;;;10.70;1.00;;;;;;2170866;60;3404;-87
2024/04/20 08:52:21;67489.00;0.22;117.42;0.00;0.00;0.62;;;;;10.40;1.00;;;;;;2170259;66;950;-87
2024/04/20 08:54:56;82907.00;0.28;144.06;0.00;0.00;0.62;;;;;10.20;1.00;;;;;;2170267;66;1082;-89
2024/04/20 08:57:26;43126.00;0.14;75.30;0.00;0.00;0.62;;;;;10.40;1.00;;;;;;2170193;66;1555;-85
2024/04/20 08:59:55;120955248.00;403.18;71686600.00;120915288.00;403.05;71615504.00;;;;;10.90;1.00;;;;;;2170222;66;1862;-85
2024/04/20 09:02:27;211976.00;0.71;366.54;29492.00;0.10;51.70;;;;;11.40;1.00;;;;;;2170138;66;1568;-86
2024/04/20 09:05:00;0.00;0.00;0.62;0.00;0.00;0.62;;;;;10.60;1.00;;;;;;2170275;66;1033;-87
2024/04/20 09:07:28;193447.00;0.64;334.64;90766.00;0.30;157.63;;;;;10.20;1.00;;;;;;2170109;66;1370;-89
2024/04/20 09:10:03;223866.00;0.75;387.00;82093.00;0.27;142.65;;;;;9.90;1.00;;;;;;2170273;66;1028;-85
2024/04/20 09:12:31;189122.00;0.63;327.20;87219.00;0.29;151.51;;;;;10.50;1.00;;;;;;2170258;66;861;-86
2024/04/20 09:15:00;177781.00;0.59;307.67;95499.00;0.32;165.80;;;;;11.10;1.00;;;;;;2170266;66;1041;-87
2024/04/20 09:17:28;330928.00;1.10;571.08;96401.00;0.32;167.36;;;;;11.80;1.00;;;;;;2170211;66;2171;-87
2024/04/20 09:19:59;313008.00;1.04;540.28;88596.00;0.30;153.88;;;;;11.40;1.00;;;;;;2173271;60;3653;-86
2024/04/20 09:22:28;243235.00;0.81;420.32;88234.00;0.29;153.26;;;;;11.70;1.00;;;;;;2170293;66;1158;-86
2024/04/20 09:25:06;246986.00;0.82;426.77;84360.00;0.28;146.57;;;;;12.40;1.00;;;;;;2170286;66;996;-87
2024/04/20 09:27:35;229033.00;0.76;395.89;87966.00;0.29;152.80;;;;;13.20;1.00;;;;;;2170157;66;1631;-87
2024/04/20 09:30:06;190009.00;0.63;328.72;89948.00;0.30;156.22;;;;;13.70;1.00;;;;;;2170109;66;1634;-88
2024/04/20 09:35:18;624320.00;2.08;1076.23;220515.00;0.74;381.23;;;;;14.50;1.00;;;;;;2175274;66;1359;-85
2024/04/20 09:37:47;308139.00;1.03;531.91;107572.00;0.36;186.64;;;;;14.80;1.00;;;;;;2174585;66;1617;-87
2024/04/20 09:42:49;426087.00;1.42;734.66;85253.00;0.28;148.11;;;;;15.10;1.00;;;;;;2175312;66;1437;-88
2024/04/20 09:45:20;457015.00;1.52;787.85;102236.00;0.34;177.43;;;;;14.80;1.00;;;;;;2175934;66;1087;-88
2024/04/20 09:47:55;447591.00;1.49;771.64;90178.00;0.30;156.62;;;;;14.30;1.00;;;;;;2174680;66;1641;-87
2024/04/20 09:50:27;561244.00;1.87;967.35;85325.00;0.28;148.23;;;;;13.80;1.00;;;;;;2171626;61;3643;-87
2024/04/20 09:53:00;456174.00;1.52;786.40;86061.00;0.29;149.51;;;;;13.70;1.00;;;;;;2170100;66;1170;-86
2024/04/20 09:55:30;406178.00;1.35;700.43;85727.00;0.29;148.93;;;;;13.30;1.00;;;;;;2170274;66;1129;-87
2024/04/20 09:58:03;435119.00;1.45;750.19;95488.00;0.32;165.78;;;;;13.00;1.00;;;;;;2170166;66;1568;-86
2024/04/20 10:00:35;425221.00;1.42;733.17;90588.00;0.30;157.32;;;;;13.20;1.00;;;;;;2170206;66;1906;-84
2024/04/20 10:03:06;365297.00;1.22;630.15;95592.00;0.32;165.96;;;;;12.80;1.00;;;;;;2170173;66;1702;-87
2024/04/20 10:05:39;464098.00;1.55;800.03;86659.00;0.29;150.54;;;;;12.10;1.00;;;;;;2170155;66;940;-87
2024/04/20 10:08:11;462312.00;1.54;796.96;93598.00;0.31;162.52;;;;;12.30;1.00;;;;;;2170141;66;1309;-86
2024/04/20 10:10:41;318403.00;1.06;549.55;94004.00;0.31;163.22;;;;;12.70;1.00;;;;;;2170010;66;1047;-85
2024/04/20 10:13:13;465498.00;1.55;802.44;88481.00;0.29;153.68;;;;;13.00;1.00;;;;;;2169900;66;969;-87
2024/04/20 10:15:47;504036.00;1.68;868.77;85329.00;0.28;148.24;;;;;13.40;1.00;;;;;;2170134;66;1506;-88
2024/04/20 10:18:15;1099692.00;3.67;1909.87;95467.00;0.32;165.75;;;;;13.20;1.00;;;;;;2170152;66;1312;-86
2024/04/20 10:20:44;510225.00;1.70;879.43;92585.00;0.31;160.77;;;;;12.90;1.00;;;;;;2170101;66;1896;-85
2024/04/20 10:23:14;505491.00;1.68;871.28;89046.00;0.30;154.66;;;;;12.90;1.00;;;;;;2170117;66;1129;-87
2024/04/20 10:25:43;538688.00;1.80;928.46;85795.00;0.29;149.05;;;;;12.60;1.00;;;;;;2170173;66;917;-85